Nearby METAR (Airport) Reports

 

KPRN - Greenville, Alabama, USA
Distance from station: WNW 17mi, 28km
Updated: Mon, 20-Jan-2020 1:56am CST
Clear
Clear
 Wind from NNW
Wind: NNW 7 mph , 11 km/h
Temperature: 36°F , 2°C
Wind Chill: 30°F , -1°C
Dew Point: 18°F , -8°C
Humidity: 48%
Barometer: 30.30 inHg , 1026.1 hPa
Clouds: Clear
Visibility: 10 miles , 16 km
2020/01/20 07:56 KPRN 200756Z AUTO 33006KT 10SM CLR 02/M08 A3030 RMK AO2 SLP261 T00171078
KTOI - Troy, Alabama, USA
Distance from station: ENE 21mi, 34km
Updated: Mon, 20-Jan-2020 1:53am CST
Clear
Clear
 Wind from NNW
Wind: NNW 6 mph , 9 km/h
Temperature: 34°F , 1°C
Wind Chill: 29°F , -2°C
Dew Point: 23°F , -5°C
Humidity: 65%
Barometer: 30.30 inHg , 1026.1 hPa
Clouds: Clear
Visibility: 10 miles , 16 km
2020/01/20 07:53 KTOI 200753Z AUTO 33005KT 10SM CLR 01/M05 A3030 RMK AO2 SLP260 T00111050
K79J - Andalusia/Opp Ar, Alabama, USA
Distance from station: S 29mi, 47km
Updated: Mon, 20-Jan-2020 1:56am CST
Clear
Clear
 Wind from NNW
Wind: NNW 9 mph , 15 km/h
Temperature: 39°F , 4°C
Wind Chill: 33°F , 1°C
Dew Point: 21°F , -6°C
Humidity: 48%
Barometer: 30.30 inHg , 1026.1 hPa
Clouds: Clear
Visibility: 10 miles , 16 km
2020/01/20 07:56 K79J 200756Z AUTO 33008KT 10SM CLR 04/M06 A3030 RMK AO2 SLP259 T00391056 $
 
KMGM - Montgomery, Alabama, USA
Distance from station: N 39mi, 63km
Updated: Mon, 20-Jan-2020 1:53am CST
Clear
Clear
 Wind from NNW
Wind: NNW 12 mph , 19 km/h
Temperature: 36°F , 2°C
Wind Chill: 28°F , -2°C
Dew Point: 19°F , -7°C
Humidity: 52%
Barometer: 30.33 inHg , 1027.1 hPa
Clouds: Clear
Visibility: 10 miles , 16 km
2020/01/20 07:53 KMGM 200753Z 33010KT 10SM CLR 02/M07 A3033 RMK AO2 SLP272 T00221067 $
KMXF - Maxwell Afb/Mgm, Alabama, USA
Distance from station: N 44mi, 70km
Updated: Mon, 20-Jan-2020 1:56am CST
Clear
Clear
 Wind from NNW
Wind: NNW 9 mph , 15 km/h
Temperature: 36°F , 2°C
Wind Chill: 29°F , -2°C
Dew Point: 18°F , -8°C
Humidity: 48%
Barometer: 30.32 inHg , 1026.8 hPa
Clouds: Clear
Visibility: 10 miles , 16 km
2020/01/20 07:56 KMXF 200756Z AUTO 33008KT 10SM CLR 02/M08 A3032 RMK AO2 SLP271 T00191077 $
KLOR - Lowe Ahp/Ft. Ruc, Alabama, USA
Distance from station: SE 44mi, 71km
Updated: Mon, 20-Jan-2020 1:58am CST
Clear
Clear
 Wind from NNW
Wind: NNW 3 mph , 6 km/h
Temperature: 36°F , 2°C
Dew Point: 25°F , -4°C
Humidity: 65%
Barometer: 30.28 inHg , 1025.4 hPa
Clouds: Clear
Visibility: 10 miles , 16 km
2020/01/20 07:58 KLOR 200758Z AUTO 33003KT 10SM CLR 02/M04 A3028 RMK AO2 SLP238 T00161043 FZRANO
 
KGZH - Evergreen, Alabama, USA
Distance from station: WSW 46mi, 75km
Updated: Mon, 20-Jan-2020 1:53am CST
Clear
Clear
 Wind from NNW
Wind: NNW 8 mph , 13 km/h
Temperature: 37°F , 3°C
Wind Chill: 31°F , -1°C
Dew Point: 19°F , -7°C
Humidity: 48%
Barometer: 30.33 inHg , 1027.1 hPa
Clouds: Clear
Visibility: 10 miles , 16 km
2020/01/20 07:53 KGZH 200753Z AUTO 34007KT 10SM CLR 03/M07 A3033 RMK AO2 SLP269 T00281067
K0J4 - Florala Muni, Alabama, USA
Distance from station: S 47mi, 76km
Updated: Mon, 20-Jan-2020 1:58am CST
Clear
Clear
 Wind from N
Wind: N 3 mph , 6 km/h
Temperature: 36°F , 2°C
Dew Point: 21°F , -6°C
Humidity: 56%
Barometer: 30.31 inHg , 1026.4 hPa
Clouds: Clear
Visibility: 10 miles , 16 km
2020/01/20 07:58 K0J4 200758Z AUTO 35003KT 10SM CLR 02/M06 A3031 RMK AO2 SLP265 T00221056
KOZR - Ozark/Cairns Aaf, Alabama, USA
Distance from station: SE 49mi, 78km
Updated: Mon, 20-Jan-2020 1:56am CST
Clear
Clear
 Wind from N
Wind: N 8 mph , 13 km/h
Temperature: 36°F , 2°C
Wind Chill: 30°F , -1°C
Dew Point: 23°F , -5°C
Humidity: 60%
Barometer: 30.27 inHg , 1025.1 hPa
Clouds: Clear
Visibility: 10 miles , 16 km
2020/01/20 07:56 KOZR 200756Z AUTO 35007KT 10SM CLR 02/M05 A3027 RMK AO2 SLP254 T00191048 $
 
KHEY - Ft Rucker/Hanche, Alabama, USA
Distance from station: ESE 49mi, 79km
Updated: Mon, 20-Jan-2020 1:58am CST
Clear
Clear
 Wind from NNW
Wind: NNW 6 mph , 9 km/h
Temperature: 36°F , 2°C
Wind Chill: 31°F , -1°C
Dew Point: 25°F , -4°C
Humidity: 65%
Barometer: 30.27 inHg , 1025.1 hPa
Clouds: Clear
Visibility: 10 miles , 16 km
2020/01/20 07:58 KHEY 200758Z AUTO 34005KT 10SM CLR 02/M04 A3027 RMK AO2 SLP254 T00201043 FZRANO
KDHN - Dothan, Alabama, USA
Distance from station: ESE 61mi, 97km
Updated: Mon, 20-Jan-2020 1:53am CST
Clear
Clear
 Wind from NNW
Wind: NNW 8 mph , 13 km/h
Temperature: 36°F , 2°C
Wind Chill: 30°F , -1°C
Dew Point: 27°F , -3°C
Humidity: 70%
Barometer: 30.29 inHg , 1025.7 hPa
Clouds: Clear
Visibility: 10 miles , 16 km
2020/01/20 07:53 KDHN 200753Z AUTO 33007KT 10SM CLR 02/M03 A3029 RMK AO2 SLP259 T00221033
KCEW - Crestview, Florida, USA
Distance from station: S 66mi, 107km
Updated: Mon, 20-Jan-2020 1:53am CST
Clear
Clear
 Wind from NNW
Wind: NNW 6 mph , 9 km/h
Temperature: 36°F , 2°C
Wind Chill: 31°F , -1°C
Dew Point: 23°F , -5°C
Humidity: 60%
Barometer: 30.31 inHg , 1026.4 hPa
Clouds: Clear
Visibility: 10 miles , 16 km
2020/01/20 07:53 KCEW 200753Z AUTO 34005KT 10SM CLR 02/M05 A3031 RMK AO2 SLP265 T00221050
 
KEUF - Eufaula, Alabama, USA
Distance from station: ENE 73mi, 118km
Updated: Mon, 04-Mar-2019 12:58pm CST
NOT Current

 
Barometer: 30.10 inHg , 1019.3 hPa
2019/03/04 18:58 KEUF 041858Z AUTO A3010 RMK AO2 RAEMM TSB02B32 SLPNO PWINO FZRANO TSNO $
KJKA - Gulf Shores, Alabama, USA
Distance from station: SSW 132mi, 212km
Updated: Mon, 20-Jan-2020 2:15am CST
Clear
Clear
 Wind from NNW
Wind: NNW 5 mph , 7 km/h
Temperature: 39°F , 4°C
Wind Chill: 35°F , 2°C
Dew Point: 27°F , -3°C
Humidity: 61%
Barometer: 30.33 inHg , 1027.1 hPa
Clouds: Clear
Visibility: 10 miles , 16 km
2020/01/20 08:15 KJKA 200815Z AUTO 33004KT 10SM CLR 04/M03 A3033 RMK AO2 T00351033
KLSF - Ft Benning/Colum, Georgia, USA
Distance from station: SNE 89mi, 143km
Updated: Mon, 20-Jan-2020 1:56am CST
Clear
Clear
 Wind from NW
Wind: NW 12 mph , 19 km/h
Temperature: 36°F , 2°C
Wind Chill: 28°F , -2°C
Dew Point: 18°F , -8°C
Humidity: 48%
Barometer: 30.27 inHg , 1025.1 hPa
Clouds: Clear
Visibility: 10 miles , 16 km
2020/01/20 07:56 KLSF 200756Z AUTO 32010KT 10SM CLR 02/M08 A3027 RMK AO2 SLP257 T00211080 $
 
KMOB - Mobile/Bates, Alabama, USA
Distance from station: SW 125mi, 202km
Updated: Mon, 20-Jan-2020 1:56am CST
Clear
Clear
 Wind from NNW
Wind: NNW 12 mph , 19 km/h
Temperature: 37°F , 3°C
Wind Chill: 29°F , -2°C
Dew Point: 21°F , -6°C
Humidity: 52%
Barometer: 30.36 inHg , 1028.1 hPa
Clouds: Clear
Visibility: 10 miles , 16 km
2020/01/20 07:56 KMOB 200756Z AUTO 34010KT 10SM CLR 03/M06 A3036 RMK AO2 SLP279 T00281061
KNMM - Meridian Nas, Mississippi, USA
Distance from station: WNW 151mi, 243km
Updated: Mon, 20-Jan-2020 1:56am CST
Clear
Clear
 Wind from N
Wind: N 10 mph , 17 km/h
Temperature: 32°F , 0°C
Wind Chill: 24°F , -4°C
Dew Point: 16°F , -9°C
Humidity: 51%
Barometer: 30.40 inHg , 1029.5 hPa
Clouds: Clear
Visibility: 10 miles , 16 km
2020/01/20 07:56 KNMM 200756Z AUTO 36009KT 10SM CLR 00/M09 A3040 RMK AO2 SLP308 T00001089
KQHY - Hurlbert (Ft Walton Bch), Florida, USA
Distance from station: S 94mi, 151km
Updated: Mon, 16-Dec-2019 1:56pm CST
NOT Current
Mostly cloudy
Mostly cloudy
 Wind from ESE
Wind: ESE 3 mph , 6 km/h
Temperature: 70°F , 21°C
Dew Point: 68°F , 20°C
Humidity: 94%
Barometer: 30.00 inHg , 1015.9 hPa
Clouds: Mostly cloudy
Visibility: 10 miles , 16 km
Cloud details: Mostly cloudy 3700 ft
Mostly cloudy 4700 ft
2019/12/16 19:56 KQHY 161956Z AUTO 12003KT 10SM BKN037 BKN047 21/20 A3000 RMK AO2 SLP165 T02120195
 
KTCL - Tuscaloosa, Alabama, USA
Distance from station: NNW 129mi, 207km
Updated: Mon, 20-Jan-2020 1:53am CST
Clear
Clear
 Wind from N
Wind: N 12 mph , 19 km/h
Temperature: 30°F , -1°C
Wind Chill: 20°F , -7°C
Dew Point: 18°F , -8°C
Humidity: 59%
Barometer: 30.41 inHg , 1029.8 hPa
Clouds: Clear
Visibility: 10 miles , 16 km
2020/01/20 07:53 KTCL 200753Z AUTO 35010KT 10SM CLR M01/M08 A3041 RMK AO2 SLP296 T10061083 $
KECP - Panama City, Florida, USA
Distance from station: SSE 122mi, 196km
Updated: Mon, 20-Jan-2020 1:53am CST
Clear
Clear
 Wind from NNW
Wind: NNW 13 mph , 20 km/h
Temperature: 41°F , 5°C
Wind Chill: 34°F , 1°C
Dew Point: 23°F , -5°C
Humidity: 49%
Barometer: 30.25 inHg , 1024.4 hPa
Clouds: Clear
Visibility: 10 miles , 16 km
2020/01/20 07:53 KECP 200753Z AUTO 33011KT 10SM CLR 05/M05 A3025 RMK AO2 SLP257 T00501050
KCBM - Columbus Afb, Mississippi, USA
Distance from station: NW 175mi, 282km
Updated: Mon, 20-Jan-2020 1:56am CST
Clear
Clear
 Wind from N
Wind: N 7 mph , 11 km/h
Temperature: 28°F , -2°C
Wind Chill: 21°F , -6°C
Dew Point: 16°F , -9°C
Humidity: 59%
Barometer: 30.44 inHg , 1030.8 hPa
Clouds: Clear
Visibility: 10 miles , 16 km
2020/01/20 07:56 KCBM 200756Z AUTO 36006KT 10SM CLR M02/M09 A3044 RMK AO2 SLP313 T10221094 $
 
KBHM - Birmingham, Alabama, USA
Distance from station: N 132mi, 212km
Updated: Mon, 20-Jan-2020 1:53am CST
Clear
Clear
 Wind from N
Wind: N 10 mph , 17 km/h
Temperature: 28°F , -2°C
Wind Chill: 19°F , -7°C
Dew Point: 16°F , -9°C
Humidity: 59%
Barometer: 30.37 inHg , 1028.4 hPa
Clouds: Clear
Visibility: 10 miles , 16 km
2020/01/20 07:53 KBHM 200753Z 35009KT 10SM CLR M02/M09 A3037 RMK AO2 SLP288 T10221089
KAAF - Apalachicola, Florida, USA
Distance from station: SSE 156mi, 250km
Updated: Mon, 20-Jan-2020 1:53am CST
Clear
Clear
 Wind from NW
Wind: NW 8 mph , 13 km/h
Temperature: 39°F , 4°C
Wind Chill: 33°F , 1°C
Dew Point: 27°F , -3°C
Humidity: 61%
Barometer: 30.23 inHg , 1023.7 hPa
Clouds: Clear
Visibility: 10 miles , 16 km
2020/01/20 07:53 KAAF 200753Z AUTO 32007KT 10SM CLR 04/M03 A3023 RMK AO2 SLP236 T00441033 $
KATL - Atlanta, Georgia, USA
Distance from station: NE 177mi, 287km
Updated: Mon, 20-Jan-2020 1:52am CST
Clear
Clear
 Wind from NW
Wind: NW 10 mph , 17 km/h
Temperature: 28°F , -2°C
Wind Chill: 19°F , -7°C
Dew Point: 16°F , -9°C
Humidity: 59%
Barometer: 30.25 inHg , 1024.4 hPa
Clouds: Clear
Visibility: 10 miles , 16 km
2020/01/20 07:52 KATL 200752Z 32009KT 10SM CLR M02/M09 A3025 RMK AO2 SLP250 T10221094
 
KGPT - Gulfport, Mississippi, USA
Distance from station: SW 192mi, 309km
Updated: Mon, 20-Jan-2020 1:53am CST
Clear
Clear
 Wind from NNW
Wind: NNW 8 mph , 13 km/h
Temperature: 37°F , 3°C
Wind Chill: 31°F , -1°C
Dew Point: 27°F , -3°C
Humidity: 65%
Barometer: 30.38 inHg , 1028.8 hPa
Clouds: Clear
Visibility: 10 miles , 16 km
2020/01/20 07:53 KGPT 200753Z AUTO 33007KT 10SM CLR 03/M03 A3038 RMK AO2 SLP286 T00331033
KNEW - New Orleans/Lake, Louisiana, USA
Distance from station: SW 255mi, 410km
Updated: Mon, 20-Jan-2020 1:53am CST
Clear
Clear
 Wind from NNE
Wind: NNE 23 mph , 37 km/h
Temperature: 46°F , 8°C
Wind Chill: 38°F , 3°C
Dew Point: 28°F , -2°C
Humidity: 50%
Barometer: 30.41 inHg , 1029.8 hPa
Clouds: Clear
Visibility: 10 miles , 16 km
2020/01/20 07:53 KNEW 200753Z AUTO 02020KT 10SM CLR 08/M02 A3041 RMK AO2 PK WND 01028/0729 SLP290 T00831017
KP92 - Salt Point, Louisiana, USA
Distance from station: SW 347mi, 559km
Updated: Mon, 20-Jan-2020 1:59am CST

 Wind from N
Wind: N 3 mph , 6 km/h
Temperature: 43°F , 6°C
Dew Point: 28°F , -2°C
Humidity: 57%
Barometer: 30.41 inHg , 1029.8 hPa
2020/01/20 07:59 KP92 200759Z AUTO 35003KT 06/M02 A3041 RMK AO1 SLP297 T00611022